Time;durP1;ratioP1;P1;durP2;ratioP2;P2;SDS_P1;SDS_P2;PMS_P1;PMS_P2;Temp;Humidity;BMP_temperature;BMP_pressure;BME280_temperature;BME280_humidity;BME280_pressure;Samples;Min_cycle;Max_cycle;Signal;HPM_P1;HPM_P2
2023/11/24 00:01:36;;;;;;;12.32;4.38;;;10.10;99.90;;;;;;4972021;28;20314;-77
2023/11/24 00:04:01;;;;;;;9.70;4.28;;;10.10;99.90;;;;;;4972241;28;20480;-77
2023/11/24 00:06:28;;;;;;;8.68;4.03;;;10.10;99.90;;;;;;4976122;28;20023;-77
2023/11/24 00:08:54;;;;;;;7.45;4.22;;;10.10;99.90;;;;;;4972015;28;20392;-77
2023/11/24 00:11:21;;;;;;;9.40;4.88;;;10.10;99.90;;;;;;4972192;28;20027;-77
2023/11/24 00:13:46;;;;;;;8.48;4.72;;;10.10;99.90;;;;;;4971900;28;20388;-77
2023/11/24 00:16:12;;;;;;;8.30;4.38;;;10.10;99.90;;;;;;4971612;28;20031;-77
2023/11/24 00:18:37;;;;;;;8.40;4.15;;;10.10;99.90;;;;;;4971365;28;20089;-76
2023/11/24 00:21:06;;;;;;;8.25;4.15;;;10.10;99.90;;;;;;4971691;28;20066;-76
2023/11/24 00:23:35;;;;;;;8.15;3.70;;;10.10;99.90;;;;;;4971408;28;20513;-77
2023/11/24 00:26:05;;;;;;;7.57;4.07;;;10.10;99.90;;;;;;4971564;28;20097;-77
2023/11/24 00:28:36;;;;;;;8.27;4.03;;;10.10;99.90;;;;;;4973981;28;20118;-77
2023/11/24 00:31:03;;;;;;;7.03;3.92;;;10.00;99.90;;;;;;4968632;28;20030;-77
2023/11/24 00:33:29;;;;;;;7.38;4.03;;;10.10;99.90;;;;;;4971626;28;20049;-77
2023/11/24 00:35:55;;;;;;;9.05;3.97;;;10.10;99.90;;;;;;4971449;28;20050;-77
2023/11/24 00:38:20;;;;;;;10.60;4.38;;;10.10;99.90;;;;;;4970827;28;20042;-77
2023/11/24 00:40:46;;;;;;;5.68;3.78;;;10.10;99.90;;;;;;4971578;28;20508;-77
2023/11/24 00:43:11;;;;;;;8.07;4.10;;;10.10;99.90;;;;;;4971229;28;20027;-77
2023/11/24 00:45:37;;;;;;;6.50;3.78;;;10.10;99.90;;;;;;4968327;28;20027;-77
2023/11/24 00:48:06;;;;;;;5.63;3.35;;;10.10;99.90;;;;;;4971641;28;20030;-77
2023/11/24 00:50:32;;;;;;;5.85;3.85;;;10.10;99.90;;;;;;4969820;28;20031;-77
2023/11/24 00:52:59;;;;;;;5.70;3.72;;;10.10;99.90;;;;;;4970942;28;20138;-77
2023/11/24 00:55:26;;;;;;;4.10;3.10;;;10.10;99.90;;;;;;4971171;28;20089;-77
2023/11/24 00:57:52;;;;;;;5.47;3.50;;;10.10;99.90;;;;;;4971490;28;20022;-77
2023/11/24 01:00:18;;;;;;;6.40;3.42;;;10.10;99.90;;;;;;4968689;28;20018;-77
2023/11/24 01:02:44;;;;;;;6.63;3.40;;;10.10;99.90;;;;;;4970349;28;20042;-77
2023/11/24 01:05:10;;;;;;;6.45;3.47;;;10.10;99.90;;;;;;4970161;28;20023;-77
2023/11/24 01:07:36;;;;;;;5.25;3.10;;;10.10;99.90;;;;;;4970078;28;20546;-77
2023/11/24 01:10:01;;;;;;;5.82;3.10;;;10.10;99.90;;;;;;4970052;28;20083;-77
2023/11/24 01:12:27;;;;;;;6.50;3.20;;;10.10;99.90;;;;;;4970321;28;20015;-77
2023/11/24 01:14:53;;;;;;;7.95;2.67;;;10.10;99.90;;;;;;4970065;28;20038;-77
2023/11/24 01:17:20;;;;;;;6.03;2.65;;;10.10;99.90;;;;;;4968739;28;20583;-76
2023/11/24 01:19:46;;;;;;;6.22;2.67;;;10.10;99.90;;;;;;4970280;28;20026;-77
2023/11/24 01:22:12;;;;;;;9.20;2.72;;;10.10;99.90;;;;;;4970126;28;20031;-77
2023/11/24 01:24:38;;;;;;;10.55;2.85;;;10.10;99.90;;;;;;4969804;28;20067;-77
2023/11/24 01:27:04;;;;;;;10.13;3.35;;;10.10;99.90;;;;;;4970466;28;20051;-77
2023/11/24 01:29:31;;;;;;;4.07;2.50;;;10.10;99.90;;;;;;4968345;28;20108;-77
2023/11/24 01:31:57;;;;;;;6.50;2.53;;;10.10;99.90;;;;;;4969676;28;20419;-77
2023/11/24 01:34:23;;;;;;;3.65;2.53;;;10.10;99.90;;;;;;4964643;28;20088;-76
2023/11/24 01:36:49;;;;;;;2.95;1.92;;;10.10;99.90;;;;;;4970113;28;20054;-77
2023/11/24 01:39:15;;;;;;;4.32;2.30;;;10.10;99.90;;;;;;4968104;28;20015;-77
2023/11/24 01:41:41;;;;;;;4.63;2.10;;;10.10;99.90;;;;;;4970002;28;20023;-77
2023/11/24 01:44:08;;;;;;;3.22;2.13;;;10.10;99.90;;;;;;4969887;28;20481;-77
2023/11/24 01:46:33;;;;;;;7.10;2.15;;;10.10;99.90;;;;;;4969186;28;20154;-77
2023/11/24 01:49:00;;;;;;;4.63;2.65;;;10.10;99.90;;;;;;4969555;28;20451;-77
2023/11/24 01:51:26;;;;;;;4.88;2.30;;;10.10;99.90;;;;;;4969932;28;20535;-77
2023/11/24 01:53:53;;;;;;;2.97;2.00;;;10.10;99.90;;;;;;4969305;28;20508;-77
2023/11/24 01:56:20;;;;;;;3.10;2.13;;;10.10;99.90;;;;;;4983920;28;20023;-77
2023/11/24 01:58:46;;;;;;;3.97;2.10;;;10.10;99.90;;;;;;4969746;28;20037;-77
2023/11/24 02:01:13;;;;;;;3.15;1.60;;;10.10;99.90;;;;;;4932450;28;1082470;-76
2023/11/24 02:03:39;;;;;;;3.53;1.77;;;10.10;99.90;;;;;;4970387;28;20034;-76
2023/11/24 02:06:08;;;;;;;5.65;1.83;;;10.10;99.90;;;;;;4970471;28;20055;-77
2023/11/24 02:08:34;;;;;;;2.38;1.67;;;10.10;99.90;;;;;;4970063;28;20030;-77
2023/11/24 02:11:00;;;;;;;3.88;2.00;;;10.10;99.90;;;;;;4973803;28;20035;-77
2023/11/24 02:13:26;;;;;;;3.30;1.98;;;10.10;99.90;;;;;;4975556;28;20030;-77
2023/11/24 02:15:53;;;;;;;3.40;1.92;;;10.10;99.90;;;;;;4973765;28;20030;-77
2023/11/24 02:18:19;;;;;;;3.50;1.80;;;10.10;99.90;;;;;;4974039;28;20030;-77
2023/11/24 02:20:45;;;;;;;4.07;2.13;;;10.10;99.90;;;;;;4978609;28;20093;-77
2023/11/24 02:23:11;;;;;;;2.83;1.80;;;10.10;99.90;;;;;;4973837;28;20499;-77
2023/11/24 02:25:36;;;;;;;4.35;2.17;;;10.10;99.90;;;;;;4975210;28;20034;-77
2023/11/24 02:28:02;;;;;;;2.83;1.90;;;10.10;99.90;;;;;;4972804;28;20018;-77
2023/11/24 02:30:27;;;;;;;5.07;2.00;;;10.10;99.90;;;;;;4973376;28;20535;-77
2023/11/24 02:32:53;;;;;;;2.30;1.70;;;10.10;99.90;;;;;;4972893;28;20035;-77
2023/11/24 02:35:19;;;;;;;2.72;1.73;;;10.10;99.90;;;;;;4973836;28;20035;-77
2023/11/24 02:37:44;;;;;;;4.25;2.28;;;10.00;99.90;;;;;;4970367;28;20053;-77
2023/11/24 02:40:11;;;;;;;6.30;2.15;;;10.00;99.90;;;;;;4973624;28;20451;-77
2023/11/24 02:42:36;;;;;;;2.88;1.90;;;10.00;99.90;;;;;;4973488;28;20027;-77
2023/11/24 02:45:06;;;;;;;2.55;2.17;;;10.00;99.90;;;;;;4977667;28;20030;-77
2023/11/24 02:47:32;;;;;;;5.20;2.27;;;10.00;99.90;;;;;;4973285;28;20034;-77
2023/11/24 02:49:57;;;;;;;4.57;2.47;;;10.10;99.90;;;;;;4971932;28;20336;-77
2023/11/24 02:52:23;;;;;;;5.75;2.58;;;10.10;99.90;;;;;;4973364;28;20027;-76
2023/11/24 02:54:48;;;;;;;3.28;1.70;;;10.10;99.90;;;;;;4972996;28;20031;-77
2023/11/24 02:57:14;;;;;;;3.10;2.20;;;10.10;99.90;;;;;;4973510;28;20069;-77
2023/11/24 02:59:40;;;;;;;5.88;2.28;;;10.10;99.90;;;;;;4973434;28;20031;-77
2023/11/24 03:02:06;;;;;;;3.33;2.08;;;10.10;99.90;;;;;;4972999;28;20031;-77
2023/11/24 03:04:32;;;;;;;3.78;2.17;;;10.00;99.90;;;;;;4973317;28;20389;-77
2023/11/24 03:06:58;;;;;;;4.10;2.40;;;10.00;99.90;;;;;;4971625;28;20538;-76
2023/11/24 03:09:25;;;;;;;3.65;1.77;;;10.00;99.90;;;;;;4973081;28;20131;-77
2023/11/24 03:11:54;;;;;;;2.67;1.90;;;10.10;99.90;;;;;;4968344;28;20396;-77
2023/11/24 03:14:23;;;;;;;3.42;1.77;;;10.00;99.90;;;;;;4972871;28;20113;-77
2023/11/24 03:16:49;;;;;;;2.83;2.10;;;10.10;99.90;;;;;;4968237;28;20596;-77
2023/11/24 03:19:16;;;;;;;5.90;2.30;;;10.10;99.90;;;;;;4970936;28;20074;-77
2023/11/24 03:21:45;;;;;;;2.63;1.70;;;10.00;99.90;;;;;;4972471;28;20026;-77
2023/11/24 03:24:10;;;;;;;2.17;1.70;;;10.00;99.90;;;;;;4972526;28;20331;-77
2023/11/24 03:26:36;;;;;;;6.00;2.00;;;10.10;99.90;;;;;;4972469;28;20555;-77
2023/11/24 03:29:02;;;;;;;2.95;2.20;;;10.10;99.90;;;;;;4971403;28;20487;-77
2023/11/24 03:31:28;;;;;;;2.17;1.75;;;10.10;99.90;;;;;;4972192;28;20015;-77
2023/11/24 03:33:53;;;;;;;2.72;1.95;;;10.10;99.90;;;;;;4972577;28;20094;-77
2023/11/24 03:36:19;;;;;;;5.60;2.35;;;10.10;99.90;;;;;;4972704;28;20027;-77
2023/11/24 03:38:44;;;;;;;9.75;2.50;;;10.10;99.90;;;;;;4969942;28;20022;-77
2023/11/24 03:41:10;;;;;;;2.60;1.75;;;10.10;99.90;;;;;;4972267;28;20030;-77
2023/11/24 03:43:36;;;;;;;2.55;1.90;;;10.00;99.90;;;;;;4972377;28;20038;-77
2023/11/24 03:46:01;;;;;;;3.17;1.90;;;10.10;99.90;;;;;;4971474;28;20027;-77
2023/11/24 03:48:30;;;;;;;8.32;2.10;;;10.10;99.90;;;;;;4972246;28;20027;-77
2023/11/24 03:50:55;;;;;;;2.83;1.90;;;10.10;99.90;;;;;;4972497;28;20019;-76
2023/11/24 03:53:21;;;;;;;3.72;2.00;;;10.10;99.90;;;;;;4972383;28;20118;-77
2023/11/24 03:55:47;;;;;;;2.50;1.80;;;10.00;99.90;;;;;;4971316;28;20085;-77
2023/11/24 03:58:14;;;;;;;3.53;2.13;;;10.10;99.90;;;;;;4971988;28;20077;-77
2023/11/24 04:00:40;;;;;;;4.50;1.55;;;10.10;99.90;;;;;;4972416;28;20018;-77
2023/11/24 04:03:05;;;;;;;2.97;1.73;;;10.00;99.90;;;;;;4971892;28;20031;-76
2023/11/24 04:05:31;;;;;;;3.35;1.95;;;10.00;99.90;;;;;;4970001;28;20669;-77
2023/11/24 04:07:57;;;;;;;3.80;1.80;;;10.00;99.90;;;;;;4970846;28;20031;-77
2023/11/24 04:10:23;;;;;;;1.88;1.55;;;10.00;99.90;;;;;;4970664;28;20027;-77
2023/11/24 04:12:48;;;;;;;2.67;1.80;;;10.10;99.90;;;;;;4968706;28;20046;-77
2023/11/24 04:15:14;;;;;;;3.25;1.92;;;10.10;99.90;;;;;;4973525;28;20015;-77
2023/11/24 04:17:40;;;;;;;2.92;1.55;;;10.00;99.90;;;;;;4972258;28;20056;-77
2023/11/24 04:20:08;;;;;;;2.13;1.58;;;10.10;99.90;;;;;;4968433;28;20471;-77
2023/11/24 04:22:34;;;;;;;1.55;1.20;;;10.10;99.90;;;;;;4964487;28;20118;-77
2023/11/24 04:25:00;;;;;;;2.17;1.58;;;10.10;99.90;;;;;;4969304;28;20033;-77
2023/11/24 04:27:26;;;;;;;1.80;1.50;;;10.10;99.90;;;;;;4971541;28;20031;-77
2023/11/24 04:29:51;;;;;;;2.75;2.05;;;10.00;99.90;;;;;;4970303;28;20027;-77
2023/11/24 04:32:17;;;;;;;4.32;1.83;;;10.10;99.90;;;;;;4970827;28;20084;-76
2023/11/24 04:34:43;;;;;;;2.03;1.52;;;10.10;99.90;;;;;;4970554;28;20028;-77
2023/11/24 04:37:09;;;;;;;3.42;2.00;;;10.10;99.90;;;;;;4971391;28;20502;-77
2023/11/24 04:39:34;;;;;;;4.97;2.17;;;10.10;99.90;;;;;;4971288;28;20031;-77
2023/11/24 04:42:00;;;;;;;4.88;1.52;;;10.10;99.90;;;;;;4971238;28;20027;-76
2023/11/24 04:44:25;;;;;;;3.63;1.85;;;10.10;99.90;;;;;;4970938;28;20053;-77
2023/11/24 04:46:51;;;;;;;2.20;1.58;;;10.10;99.90;;;;;;4970430;28;20137;-77
2023/11/24 04:49:17;;;;;;;1.90;1.60;;;10.10;99.90;;;;;;4971325;28;20030;-77
2023/11/24 04:51:43;;;;;;;2.78;1.70;;;10.10;99.90;;;;;;4973553;28;20085;-77
2023/11/24 04:54:09;;;;;;;2.50;1.52;;;10.10;99.90;;;;;;4971215;28;20105;-78
2023/11/24 04:56:34;;;;;;;3.67;2.10;;;10.10;99.90;;;;;;4970288;28;20025;-77
2023/11/24 04:59:00;;;;;;;3.30;1.60;;;10.10;99.90;;;;;;4973237;28;20034;-77
2023/11/24 05:01:27;;;;;;;2.67;1.95;;;10.10;99.90;;;;;;4970823;28;20141;-77
2023/11/24 05:03:55;;;;;;;1.90;1.70;;;10.10;99.90;;;;;;4971085;28;20473;-77
2023/11/24 05:06:21;;;;;;;5.70;1.98;;;10.10;99.90;;;;;;4970683;28;20034;-77
2023/11/24 05:08:47;;;;;;;2.15;1.80;;;10.10;99.90;;;;;;4969842;28;20030;-77
2023/11/24 05:11:13;;;;;;;5.35;1.63;;;10.10;99.90;;;;;;4968718;28;20484;-77
2023/11/24 05:13:38;;;;;;;4.35;1.95;;;10.10;99.90;;;;;;4970667;28;20049;-77
2023/11/24 05:16:05;;;;;;;2.58;1.70;;;10.10;99.90;;;;;;4970849;28;20019;-77
2023/11/24 05:18:31;;;;;;;2.92;1.67;;;10.00;99.90;;;;;;4970789;28;20019;-77
2023/11/24 05:20:56;;;;;;;4.78;2.30;;;10.00;99.90;;;;;;4970569;28;20069;-77
2023/11/24 05:23:22;;;;;;;2.10;1.50;;;10.00;99.90;;;;;;4965160;28;20031;-78
2023/11/24 05:25:48;;;;;;;3.30;1.55;;;10.10;99.90;;;;;;4970725;28;20107;-77
2023/11/24 05:28:13;;;;;;;2.78;1.63;;;10.00;99.90;;;;;;4970806;28;20034;-77
2023/11/24 05:30:39;;;;;;;2.42;1.50;;;10.00;99.90;;;;;;4970259;28;20059;-77
2023/11/24 05:33:05;;;;;;;2.63;1.75;;;10.00;99.90;;;;;;4970533;28;20015;-77
2023/11/24 05:35:31;;;;;;;6.95;1.60;;;10.10;99.90;;;;;;4969136;28;20019;-77
2023/11/24 05:37:56;;;;;;;3.33;1.75;;;10.10;99.90;;;;;;4969294;28;20051;-77
2023/11/24 05:40:23;;;;;;;4.05;1.40;;;10.00;99.90;;;;;;4970577;28;20031;-77
2023/11/24 05:42:48;;;;;;;4.93;1.48;;;10.10;99.90;;;;;;4971788;28;20023;-78
2023/11/24 05:45:14;;;;;;;1.90;1.42;;;10.00;99.90;;;;;;4966523;28;20469;-77
2023/11/24 05:47:40;;;;;;;1.63;1.20;;;10.00;99.90;;;;;;4968364;28;20054;-77
2023/11/24 05:50:07;;;;;;;4.43;1.35;;;10.00;99.90;;;;;;4969718;28;20030;-77
2023/11/24 05:52:33;;;;;;;1.65;1.38;;;10.00;99.90;;;;;;4970162;28;20109;-77
2023/11/24 05:55:02;;;;;;;2.13;1.05;;;10.10;99.90;;;;;;4970212;28;20015;-77
2023/11/24 05:57:28;;;;;;;2.35;1.55;;;10.00;99.90;;;;;;4970708;28;20030;-77
2023/11/24 05:59:55;;;;;;;1.88;1.60;;;10.10;99.90;;;;;;4967384;28;20069;-77
2023/11/24 06:02:21;;;;;;;1.70;1.40;;;10.00;99.90;;;;;;4965252;28;20492;-77
2023/11/24 06:04:47;;;;;;;2.08;1.50;;;10.00;99.90;;;;;;4970285;28;20408;-77
2023/11/24 06:07:14;;;;;;;2.35;1.35;;;10.00;99.90;;;;;;4967486;28;20096;-77
2023/11/24 06:09:40;;;;;;;4.20;1.55;;;10.10;99.90;;;;;;4966866;28;20018;-77
2023/11/24 06:12:06;;;;;;;2.60;1.52;;;10.00;99.90;;;;;;4984505;28;20023;-77
2023/11/24 06:14:31;;;;;;;2.17;1.52;;;10.10;99.90;;;;;;4966326;28;20035;-77
2023/11/24 06:16:57;;;;;;;2.75;1.70;;;10.00;99.90;;;;;;4967694;28;20037;-77
2023/11/24 06:19:23;;;;;;;1.73;1.05;;;10.00;99.90;;;;;;4969900;28;20030;-77
2023/11/24 06:21:48;;;;;;;2.30;2.08;;;10.10;99.90;;;;;;4970754;28;20058;-77
2023/11/24 06:24:14;;;;;;;1.60;1.25;;;10.10;99.90;;;;;;4967334;28;20722;-77
2023/11/24 06:26:40;;;;;;;2.67;1.27;;;10.10;99.90;;;;;;4971723;28;20030;-77
2023/11/24 06:29:05;;;;;;;1.90;1.50;;;10.10;99.90;;;;;;4970009;28;20073;-76
2023/11/24 06:31:31;;;;;;;1.85;1.30;;;10.10;99.90;;;;;;4969845;28;20034;-77
2023/11/24 06:33:57;;;;;;;2.05;1.10;;;10.10;99.90;;;;;;4970041;28;20451;-77
2023/11/24 06:36:22;;;;;;;1.08;0.98;;;10.10;99.90;;;;;;4967999;28;20110;-77
2023/11/24 06:38:48;;;;;;;3.25;1.10;;;10.20;99.90;;;;;;4970718;28;20097;-77
2023/11/24 06:41:13;;;;;;;1.40;1.02;;;10.10;99.90;;;;;;4969988;28;20031;-77
2023/11/24 06:43:39;;;;;;;2.80;0.98;;;10.20;99.90;;;;;;4959781;28;20075;-76
2023/11/24 06:46:05;;;;;;;0.93;0.90;;;10.20;99.90;;;;;;4969683;28;20030;-77
2023/11/24 06:48:32;;;;;;;2.50;0.88;;;10.10;99.90;;;;;;4967156;28;20054;-77
2023/11/24 06:50:58;;;;;;;0.77;0.73;;;10.20;99.90;;;;;;4968411;28;20030;-77
2023/11/24 06:53:24;;;;;;;0.80;0.65;;;10.20;99.90;;;;;;4982415;28;20030;-77
2023/11/24 06:55:50;;;;;;;1.00;0.75;;;10.20;99.90;;;;;;4970111;28;20022;-77
2023/11/24 06:58:15;;;;;;;1.55;0.80;;;10.20;99.90;;;;;;4968976;28;20019;-77
2023/11/24 07:00:42;;;;;;;0.93;0.77;;;10.20;99.90;;;;;;4970447;28;20034;-76
2023/11/24 07:03:07;;;;;;;3.03;0.82;;;10.20;99.90;;;;;;4971039;28;20053;-77
2023/11/24 07:05:33;;;;;;;0.60;0.60;;;10.20;99.90;;;;;;4975271;28;20459;-77
2023/11/24 07:07:58;;;;;;;0.63;0.63;;;10.20;99.90;;;;;;4973667;28;20018;-77
2023/11/24 07:10:26;;;;;;;2.70;0.95;;;10.20;99.90;;;;;;4972565;28;20034;-77
2023/11/24 07:12:52;;;;;;;1.42;0.98;;;10.20;99.90;;;;;;4971614;28;20054;-77
2023/11/24 07:15:18;;;;;;;0.82;0.70;;;10.20;99.90;;;;;;4970769;28;20487;-77
2023/11/24 07:17:44;;;;;;;0.80;0.80;;;10.20;99.90;;;;;;4972316;28;20027;-77
2023/11/24 07:20:11;;;;;;;0.70;0.70;;;10.20;99.90;;;;;;4974872;28;20039;-77
2023/11/24 07:22:41;;;;;;;1.83;0.93;;;10.20;99.90;;;;;;4973542;28;20030;-76
2023/11/24 07:25:07;;;;;;;4.93;1.00;;;10.20;99.90;;;;;;4970886;28;20515;-77
2023/11/24 07:27:33;;;;;;;1.40;0.80;;;10.20;99.90;;;;;;4970217;28;20081;-77
2023/11/24 07:29:58;;;;;;;1.15;1.00;;;10.20;99.90;;;;;;4973874;28;20031;-79
2023/11/24 07:32:28;;;;;;;1.58;1.10;;;10.20;99.90;;;;;;4978756;28;20399;-79
2023/11/24 07:34:54;;;;;;;1.48;0.95;;;10.20;99.90;;;;;;4976469;28;20019;-79
2023/11/24 07:37:20;;;;;;;1.08;0.77;;;10.20;99.90;;;;;;4974114;28;20033;-79
2023/11/24 07:39:45;;;;;;;0.80;0.80;;;10.20;99.90;;;;;;4970170;28;20026;-79
2023/11/24 07:42:12;;;;;;;1.50;0.80;;;10.20;99.90;;;;;;4976985;28;20034;-79
2023/11/24 07:44:37;;;;;;;1.25;1.05;;;10.20;99.90;;;;;;4976504;28;21538;-79
2023/11/24 07:47:05;;;;;;;2.25;1.40;;;10.20;99.90;;;;;;4975278;28;20062;-79
2023/11/24 07:49:31;;;;;;;0.80;0.80;;;10.20;99.90;;;;;;4972512;28;20031;-79
2023/11/24 07:51:57;;;;;;;1.77;0.95;;;10.20;99.90;;;;;;4973063;28;20015;-79
2023/11/24 07:54:22;;;;;;;1.02;1.02;;;10.20;99.90;;;;;;4972969;28;20058;-82
2023/11/24 07:56:48;;;;;;;2.85;0.80;;;10.20;99.90;;;;;;4973159;28;20023;-81
2023/11/24 07:59:14;;;;;;;7.05;1.13;;;12.00;99.90;;;;;;4969380;28;20023;-81
2023/11/24 08:01:40;;;;;;;4.53;1.83;;;11.30;99.90;;;;;;4968921;28;20031;-81
2023/11/24 08:04:06;;;;;;;7.95;3.28;;;10.80;99.90;;;;;;4969282;28;20026;-81
2023/11/24 08:06:32;;;;;;;7.97;3.38;;;10.60;99.90;;;;;;4970646;28;20038;-81
2023/11/24 08:08:59;;;;;;;7.13;3.25;;;10.50;99.90;;;;;;4971680;28;20484;-81
2023/11/24 08:11:26;;;;;;;4.65;2.85;;;10.40;99.90;;;;;;4971324;28;20027;-78
2023/11/24 08:13:51;;;;;;;5.55;2.90;;;10.30;99.90;;;;;;4971428;28;20074;-79
2023/11/24 08:16:17;;;;;;;5.30;2.60;;;10.30;99.90;;;;;;4966208;28;20023;-79
2023/11/24 08:18:43;;;;;;;3.92;2.35;;;10.30;99.90;;;;;;4972637;28;20030;-78
2023/11/24 08:21:09;;;;;;;10.20;2.40;;;10.30;99.90;;;;;;4965994;28;20022;-78
2023/11/24 08:23:35;;;;;;;6.32;2.33;;;10.30;99.90;;;;;;4971368;28;20019;-79
2023/11/24 08:26:03;;;;;;;2.40;1.85;;;10.30;99.90;;;;;;4970856;28;20387;-79
2023/11/24 08:28:29;;;;;;;7.60;2.28;;;10.30;99.90;;;;;;4970306;28;20014;-79
2023/11/24 08:30:55;;;;;;;8.50;2.25;;;10.30;99.90;;;;;;4969958;28;20041;-79
2023/11/24 08:33:21;;;;;;;3.67;1.73;;;10.20;99.90;;;;;;4970589;28;20015;-77
2023/11/24 08:35:47;;;;;;;9.07;1.77;;;10.30;99.90;;;;;;4973687;28;20098;-81
2023/11/24 08:38:13;;;;;;;4.68;1.88;;;10.20;99.90;;;;;;4971892;28;20098;-79
2023/11/24 08:40:39;;;;;;;2.28;1.58;;;10.30;99.90;;;;;;4966694;28;20412;-79
2023/11/24 08:43:05;;;;;;;5.22;1.90;;;10.20;99.90;;;;;;4969674;28;20022;-79
2023/11/24 08:45:33;;;;;;;2.88;1.60;;;10.30;99.90;;;;;;4973003;28;20027;-80
2023/11/24 08:47:59;;;;;;;3.35;1.55;;;10.20;99.90;;;;;;4972236;28;20495;-79
2023/11/24 08:50:24;;;;;;;4.32;1.60;;;10.30;99.90;;;;;;4968942;28;20037;-79
2023/11/24 08:52:52;;;;;;;1.90;1.17;;;10.20;99.90;;;;;;4965542;28;20504;-79
2023/11/24 08:55:17;;;;;;;3.60;1.60;;;10.30;99.90;;;;;;4982762;28;20046;-79
2023/11/24 08:57:44;;;;;;;1.85;1.10;;;10.30;99.90;;;;;;4970268;28;20027;-80
2023/11/24 09:00:16;;;;;;;2.63;1.23;;;10.30;99.90;;;;;;4971363;28;20049;-79
2023/11/24 09:02:43;;;;;;;2.42;1.27;;;10.20;99.90;;;;;;4967763;28;20472;-79
2023/11/24 09:05:09;;;;;;;2.20;1.10;;;10.30;99.90;;;;;;4967610;28;20030;-77
2023/11/24 09:07:35;;;;;;;3.65;1.17;;;10.30;99.90;;;;;;4969509;28;20088;-77
2023/11/24 09:10:02;;;;;;;4.57;1.20;;;10.30;99.90;;;;;;4970220;28;20429;-77
2023/11/24 09:12:28;;;;;;;4.88;1.63;;;10.30;99.90;;;;;;4970456;28;20031;-71
2023/11/24 09:14:53;;;;;;;1.50;1.05;;;12.80;99.90;;;;;;4972358;28;20030;-71
2023/11/24 09:17:20;;;;;;;3.83;1.13;;;13.70;99.90;;;;;;4970637;28;20077;-77
2023/11/24 09:19:46;;;;;;;1.70;1.17;;;13.00;99.90;;;;;;4959907;28;20023;-76
2023/11/24 09:22:12;;;;;;;0.93;0.90;;;11.90;99.90;;;;;;4969090;28;20105;-78
2023/11/24 09:24:38;;;;;;;1.02;0.82;;;11.30;99.90;;;;;;4969274;28;20162;-78
2023/11/24 09:27:04;;;;;;;3.53;1.10;;;10.90;99.90;;;;;;4969729;28;20377;-78
2023/11/24 09:29:30;;;;;;;2.13;1.65;;;10.80;99.90;;;;;;4965258;28;20034;-78
2023/11/24 09:31:58;;;;;;;2.15;1.27;;;10.70;99.90;;;;;;4967748;28;20019;-78
2023/11/24 09:34:24;;;;;;;1.33;1.05;;;10.60;99.90;;;;;;4971355;28;20027;-78
2023/11/24 09:36:49;;;;;;;1.98;1.30;;;10.60;99.90;;;;;;4967177;28;20019;-78
2023/11/24 09:39:17;;;;;;;2.40;1.40;;;10.50;99.90;;;;;;4969924;28;20023;-78
2023/11/24 09:41:48;;;;;;;1.55;0.90;;;10.50;99.90;;;;;;4964266;28;20031;-79
2023/11/24 09:44:15;;;;;;;3.08;1.10;;;10.40;99.90;;;;;;4968026;28;20023;-79
2023/11/24 09:46:43;;;;;;;3.22;0.93;;;10.40;99.90;;;;;;4968807;28;20031;-79
2023/11/24 09:49:09;;;;;;;4.57;1.05;;;10.40;99.90;;;;;;4970294;28;20514;-78
2023/11/24 09:51:38;;;;;;;5.68;2.05;;;10.40;99.90;;;;;;4968913;28;20030;-78
2023/11/24 09:54:05;;;;;;;2.85;0.90;;;10.40;99.90;;;;;;4965465;28;20019;-78
2023/11/24 09:56:32;;;;;;;6.70;1.30;;;10.40;99.90;;;;;;4965177;28;20023;-79
2023/11/24 09:58:57;;;;;;;8.60;1.70;;;10.30;99.90;;;;;;4965063;28;20031;-78
2023/11/24 10:01:23;;;;;;;3.70;1.33;;;10.40;99.90;;;;;;4969029;28;20038;-75
2023/11/24 10:03:53;;;;;;;4.13;1.10;;;10.30;99.90;;;;;;4969879;28;20019;-76
2023/11/24 10:06:19;;;;;;;1.65;1.05;;;10.30;99.90;;;;;;4965644;28;20427;-75
2023/11/24 10:08:46;;;;;;;5.03;1.48;;;10.30;99.90;;;;;;4965740;28;20034;-76
2023/11/24 10:11:17;;;;;;;3.45;0.95;;;10.30;99.90;;;;;;4965512;28;20066;-76
2023/11/24 10:13:44;;;;;;;4.40;1.40;;;10.30;99.90;;;;;;4970296;28;20496;-76
2023/11/24 10:16:13;;;;;;;8.30;1.58;;;10.30;99.90;;;;;;4970074;28;20030;-75
2023/11/24 10:18:43;;;;;;;7.32;1.73;;;10.30;99.90;;;;;;4962080;28;20476;-75
2023/11/24 10:21:09;;;;;;;12.57;1.48;;;10.10;99.90;;;;;;4966276;28;20026;-69
2023/11/24 10:23:35;;;;;;;2.00;1.42;;;12.10;99.90;;;;;;4975585;28;20031;-76
2023/11/24 10:26:01;;;;;;;3.58;1.20;;;12.60;99.90;;;;;;4970119;28;20015;-76
2023/11/24 10:28:27;;;;;;;6.85;1.30;;;11.50;99.90;;;;;;4966146;28;20054;-71
2023/11/24 10:30:55;;;;;;;5.15;1.23;;;13.00;99.90;;;;;;4962960;28;20034;-74
2023/11/24 10:33:21;;;;;;;18.25;1.33;;;14.60;99.90;;;;;;4970090;28;20073;-73
2023/11/24 10:35:49;;;;;;;12.43;1.63;;;15.10;99.90;;;;;;4971578;28;20412;-77
2023/11/24 10:38:19;;;;;;;20.02;1.95;;;14.60;99.90;;;;;;4973190;28;20098;-78
2023/11/24 10:40:45;;;;;;;;;;;13.10;99.90;;;;;;4967915;28;20045;-77
2023/11/24 10:43:12;;;;;;;7.90;1.52;;;12.10;99.90;;;;;;4971032;28;19985;-77
2023/11/24 10:45:40;;;;;;;8.48;1.27;;;11.50;99.90;;;;;;4968976;28;20784;-77
2023/11/24 10:48:33;;;;;;;7.63;1.60;;;11.20;99.90;;;;;;4974281;28;20033;-76
2023/11/24 10:51:04;;;;;;;6.72;1.58;;;10.90;99.90;;;;;;4969523;28;20110;-76
2023/11/24 10:53:42;;;;;;;3.80;1.50;;;10.80;99.90;;;;;;4971896;28;20500;-76
2023/11/24 10:56:09;;;;;;;6.50;1.30;;;10.70;99.90;;;;;;4968936;28;20019;-77
2023/11/24 10:58:36;;;;;;;6.95;1.67;;;10.70;99.90;;;;;;4969291;28;20034;-77
2023/11/24 11:01:02;;;;;;;7.68;1.90;;;10.70;99.90;;;;;;4973638;28;20096;-76
2023/11/24 11:03:33;;;;;;;6.85;1.48;;;10.60;99.90;;;;;;4973516;28;20552;-77
2023/11/24 11:06:18;;;;;;;4.03;1.35;;;10.60;99.90;;;;;;4983021;28;20067;-77
2023/11/24 11:08:56;;;;;;;11.63;2.03;;;10.60;99.90;;;;;;4968192;28;20046;-78
2023/11/24 11:12:19;;;;;;;8.50;1.70;;;10.60;99.90;;;;;;4971523;28;20058;-80
2023/11/24 11:14:46;;;;;;;8.15;1.75;;;10.60;99.90;;;;;;4972840;28;20027;-78
2023/11/24 11:17:20;;;;;;;7.20;1.77;;;10.60;99.90;;;;;;4970581;28;20019;-78
2023/11/24 11:19:58;;;;;;;7.28;1.73;;;10.60;99.90;;;;;;4969899;28;20053;-79
2023/11/24 11:22:28;;;;;;;8.18;1.83;;;10.70;99.90;;;;;;4984079;28;20093;-80
2023/11/24 11:25:14;;;;;;;5.33;1.53;;;10.70;99.90;;;;;;4972306;28;20019;-80
2023/11/24 11:27:42;;;;;;;7.60;2.05;;;10.80;99.90;;;;;;4964567;28;20687;-80
2023/11/24 11:30:22;;;;;;;7.78;2.13;;;10.80;99.90;;;;;;4973390;28;20503;-78
2023/11/24 11:33:14;;;;;;;6.85;1.80;;;10.80;99.90;;;;;;4965580;28;20054;-78
2023/11/24 11:35:48;;;;;;;5.93;1.33;;;10.80;99.90;;;;;;4968135;28;20030;-75
2023/11/24 11:38:25;;;;;;;10.23;2.13;;;10.80;99.90;;;;;;4967364;28;20134;-77
2023/11/24 11:40:57;;;;;;;8.68;1.48;;;10.80;99.90;;;;;;4970215;28;20109;-78
2023/11/24 11:43:25;;;;;;;4.00;1.42;;;10.80;99.90;;;;;;4966868;28;20036;-78
2023/11/24 11:45:59;;;;;;;5.38;1.60;;;10.80;99.90;;;;;;4969092;28;20026;-78
2023/11/24 11:48:38;;;;;;;6.50;1.80;;;10.80;99.90;;;;;;4968985;28;20029;-78
2023/11/24 11:51:04;;;;;;;4.43;1.33;;;10.70;99.90;;;;;;4967849;28;20476;-77
2023/11/24 11:53:31;;;;;;;2.10;1.33;;;10.70;99.90;;;;;;4969189;28;20487;-78
2023/11/24 11:55:59;;;;;;;6.47;1.67;;;10.70;99.90;;;;;;4964866;28;20012;-78
2023/11/24 11:58:25;;;;;;;5.57;1.60;;;10.70;99.90;;;;;;4968637;28;20518;-78
2023/11/24 12:00:51;;;;;;;2.42;1.63;;;10.70;99.90;;;;;;4967401;28;20504;-78
2023/11/24 12:03:21;;;;;;;7.95;1.42;;;10.60;99.90;;;;;;4971432;28;20057;-78
2023/11/24 12:05:51;;;;;;;5.87;1.50;;;10.60;99.90;;;;;;4965783;28;20469;-77
2023/11/24 12:08:18;;;;;;;4.00;1.27;;;10.60;99.90;;;;;;4971166;28;20035;-81
2023/11/24 12:10:45;;;;;;;7.40;1.35;;;10.60;99.90;;;;;;4968317;28;20027;-78
2023/11/24 12:13:11;;;;;;;3.10;1.23;;;10.60;99.90;;;;;;4968109;28;20021;-78
2023/11/24 12:15:37;;;;;;;9.00;1.60;;;10.60;99.90;;;;;;4970026;28;20054;-79
2023/11/24 12:18:05;;;;;;;3.25;1.40;;;10.60;99.90;;;;;;4971918;28;20413;-78
2023/11/24 12:20:31;;;;;;;8.25;1.65;;;10.60;99.90;;;;;;4967368;28;20027;-79
2023/11/24 12:22:59;;;;;;;5.20;1.50;;;10.50;99.90;;;;;;4964492;28;20094;-78
2023/11/24 12:25:26;;;;;;;4.57;1.80;;;10.50;99.90;;;;;;4967213;28;20526;-78
2023/11/24 12:27:51;;;;;;;2.70;1.20;;;10.50;99.90;;;;;;4967570;28;20030;-78
2023/11/24 12:30:18;;;;;;;8.45;2.00;;;10.50;99.90;;;;;;4970983;28;20299;-78
2023/11/24 12:32:48;;;;;;;3.95;1.38;;;10.50;99.90;;;;;;4967157;28;20033;-78
2023/11/24 12:35:14;;;;;;;6.45;1.40;;;10.50;99.90;;;;;;4964006;28;20054;-78
2023/11/24 12:37:41;;;;;;;4.63;1.23;;;10.50;99.90;;;;;;4966603;28;20113;-78
2023/11/24 12:40:13;;;;;;;2.72;1.23;;;10.50;99.90;;;;;;4969524;28;20031;-78
2023/11/24 12:42:40;;;;;;;6.50;1.35;;;10.50;99.90;;;;;;4967567;28;20030;-78
2023/11/24 12:45:08;;;;;;;1.95;1.17;;;10.50;99.90;;;;;;4962266;28;20700;-78